sensor_id;sensor_type;location;lat;lon;timestamp;temperature;humidity
32524;DHT22;18965;52.242;20.886;2023-08-07T00:01:31;17.60;80.30
32524;DHT22;18965;52.242;20.886;2023-08-07T00:04:03;17.60;80.50
32524;DHT22;18965;52.242;20.886;2023-08-07T00:06:31;17.60;80.70
32524;DHT22;18965;52.242;20.886;2023-08-07T00:08:57;17.60;80.80
32524;DHT22;18965;52.242;20.886;2023-08-07T00:11:23;17.60;80.90
32524;DHT22;18965;52.242;20.886;2023-08-07T00:13:49;17.60;81.00
32524;DHT22;18965;52.242;20.886;2023-08-07T00:16:14;17.50;81.00
32524;DHT22;18965;52.242;20.886;2023-08-07T00:18:40;17.50;81.00
32524;DHT22;18965;52.242;20.886;2023-08-07T00:21:06;17.50;81.00
32524;DHT22;18965;52.242;20.886;2023-08-07T00:23:35;17.50;81.10
32524;DHT22;18965;52.242;20.886;2023-08-07T00:26:01;17.50;81.20
32524;DHT22;18965;52.242;20.886;2023-08-07T00:28:28;17.40;81.20
32524;DHT22;18965;52.242;20.886;2023-08-07T00:30:55;17.40;81.30
32524;DHT22;18965;52.242;20.886;2023-08-07T00:33:22;17.40;81.40
32524;DHT22;18965;52.242;20.886;2023-08-07T00:35:48;17.40;81.50
32524;DHT22;18965;52.242;20.886;2023-08-07T00:38:14;17.40;81.50
32524;DHT22;18965;52.242;20.886;2023-08-07T00:40:40;17.30;81.60
32524;DHT22;18965;52.242;20.886;2023-08-07T00:43:06;17.30;81.60
32524;DHT22;18965;52.242;20.886;2023-08-07T00:45:36;17.30;81.70
32524;DHT22;18965;52.242;20.886;2023-08-07T00:48:04;17.30;81.80
32524;DHT22;18965;52.242;20.886;2023-08-07T00:50:30;17.20;81.80
32524;DHT22;18965;52.242;20.886;2023-08-07T00:52:57;17.20;81.80
32524;DHT22;18965;52.242;20.886;2023-08-07T00:55:23;17.20;81.90
32524;DHT22;18965;52.242;20.886;2023-08-07T00:57:49;17.20;82.00
32524;DHT22;18965;52.242;20.886;2023-08-07T01:00:15;17.20;82.00
32524;DHT22;18965;52.242;20.886;2023-08-07T01:02:42;17.20;82.00
32524;DHT22;18965;52.242;20.886;2023-08-07T01:05:08;17.20;82.10
32524;DHT22;18965;52.242;20.886;2023-08-07T01:07:34;17.20;82.20
32524;DHT22;18965;52.242;20.886;2023-08-07T01:09:59;17.10;82.20
32524;DHT22;18965;52.242;20.886;2023-08-07T01:12:45;17.10;82.30
32524;DHT22;18965;52.242;20.886;2023-08-07T01:15:17;17.10;82.50
32524;DHT22;18965;52.242;20.886;2023-08-07T01:17:44;17.10;82.40
32524;DHT22;18965;52.242;20.886;2023-08-07T01:20:11;17.10;82.40
32524;DHT22;18965;52.242;20.886;2023-08-07T01:22:37;17.10;82.50
32524;DHT22;18965;52.242;20.886;2023-08-07T01:25:07;17.10;82.70
32524;DHT22;18965;52.242;20.886;2023-08-07T01:27:46;17.10;82.70
32524;DHT22;18965;52.242;20.886;2023-08-07T01:30:35;17.10;82.60
32524;DHT22;18965;52.242;20.886;2023-08-07T01:33:14;17.10;82.70
32524;DHT22;18965;52.242;20.886;2023-08-07T01:35:46;17.10;82.60
32524;DHT22;18965;52.242;20.886;2023-08-07T01:38:13;17.00;82.60
32524;DHT22;18965;52.242;20.886;2023-08-07T01:40:40;17.00;82.70
32524;DHT22;18965;52.242;20.886;2023-08-07T01:43:11;17.00;82.80
32524;DHT22;18965;52.242;20.886;2023-08-07T01:45:36;17.00;82.80
32524;DHT22;18965;52.242;20.886;2023-08-07T01:48:03;17.00;82.90
32524;DHT22;18965;52.242;20.886;2023-08-07T01:50:29;17.00;83.00
32524;DHT22;18965;52.242;20.886;2023-08-07T01:52:55;17.00;83.00
32524;DHT22;18965;52.242;20.886;2023-08-07T01:55:22;17.00;83.10
32524;DHT22;18965;52.242;20.886;2023-08-07T01:57:48;17.00;83.20
32524;DHT22;18965;52.242;20.886;2023-08-07T02:00:13;17.00;83.20
32524;DHT22;18965;52.242;20.886;2023-08-07T02:02:39;17.00;83.10
32524;DHT22;18965;52.242;20.886;2023-08-07T02:05:05;17.00;83.20
32524;DHT22;18965;52.242;20.886;2023-08-07T02:07:31;17.00;83.10
32524;DHT22;18965;52.242;20.886;2023-08-07T02:09:58;16.90;82.90
32524;DHT22;18965;52.242;20.886;2023-08-07T02:12:24;16.90;83.00
32524;DHT22;18965;52.242;20.886;2023-08-07T02:14:53;16.90;83.10
32524;DHT22;18965;52.242;20.886;2023-08-07T02:17:21;17.00;83.10
32524;DHT22;18965;52.242;20.886;2023-08-07T02:19:47;16.90;83.10
32524;DHT22;18965;52.242;20.886;2023-08-07T02:22:13;16.90;83.30
32524;DHT22;18965;52.242;20.886;2023-08-07T02:24:39;16.90;83.30
32524;DHT22;18965;52.242;20.886;2023-08-07T02:27:05;16.90;83.30
32524;DHT22;18965;52.242;20.886;2023-08-07T02:29:30;16.90;83.30
32524;DHT22;18965;52.242;20.886;2023-08-07T02:32:00;16.90;83.40
32524;DHT22;18965;52.242;20.886;2023-08-07T02:34:28;16.90;83.50
32524;DHT22;18965;52.242;20.886;2023-08-07T02:36:54;16.90;83.60
32524;DHT22;18965;52.242;20.886;2023-08-07T02:39:20;16.80;83.50
32524;DHT22;18965;52.242;20.886;2023-08-07T02:41:46;16.90;83.50
32524;DHT22;18965;52.242;20.886;2023-08-07T02:44:12;16.80;83.40
32524;DHT22;18965;52.242;20.886;2023-08-07T02:46:37;16.80;83.50
32524;DHT22;18965;52.242;20.886;2023-08-07T02:49:03;16.80;83.50
32524;DHT22;18965;52.242;20.886;2023-08-07T02:51:30;16.80;83.50
32524;DHT22;18965;52.242;20.886;2023-08-07T02:53:59;16.80;83.40
32524;DHT22;18965;52.242;20.886;2023-08-07T02:56:25;16.80;83.40
32524;DHT22;18965;52.242;20.886;2023-08-07T02:58:50;16.80;83.50
32524;DHT22;18965;52.242;20.886;2023-08-07T03:01:16;16.80;83.50
32524;DHT22;18965;52.242;20.886;2023-08-07T03:03:42;16.80;83.50
32524;DHT22;18965;52.242;20.886;2023-08-07T03:06:07;16.70;83.50
32524;DHT22;18965;52.242;20.886;2023-08-07T03:08:33;16.70;83.50
32524;DHT22;18965;52.242;20.886;2023-08-07T03:10:59;16.70;83.40
32524;DHT22;18965;52.242;20.886;2023-08-07T03:13:25;16.70;83.40
32524;DHT22;18965;52.242;20.886;2023-08-07T03:16:02;16.70;83.30
32524;DHT22;18965;52.242;20.886;2023-08-07T03:18:31;16.70;83.60
32524;DHT22;18965;52.242;20.886;2023-08-07T03:20:58;16.70;83.50
32524;DHT22;18965;52.242;20.886;2023-08-07T03:23:24;16.70;83.50
32524;DHT22;18965;52.242;20.886;2023-08-07T03:25:51;16.70;83.50
32524;DHT22;18965;52.242;20.886;2023-08-07T03:28:17;16.70;83.50
32524;DHT22;18965;52.242;20.886;2023-08-07T03:30:43;16.70;83.50
32524;DHT22;18965;52.242;20.886;2023-08-07T03:33:10;16.70;83.50
32524;DHT22;18965;52.242;20.886;2023-08-07T03:35:36;16.70;83.40
32524;DHT22;18965;52.242;20.886;2023-08-07T03:38:02;16.70;83.30
32524;DHT22;18965;52.242;20.886;2023-08-07T03:40:27;16.70;83.20
32524;DHT22;18965;52.242;20.886;2023-08-07T03:42:53;16.70;83.10
32524;DHT22;18965;52.242;20.886;2023-08-07T03:45:19;16.70;83.10
32524;DHT22;18965;52.242;20.886;2023-08-07T03:47:44;16.70;83.20
32524;DHT22;18965;52.242;20.886;2023-08-07T03:50:10;16.70;83.20
32524;DHT22;18965;52.242;20.886;2023-08-07T03:52:36;16.70;83.10
32524;DHT22;18965;52.242;20.886;2023-08-07T03:55:01;16.70;83.10
32524;DHT22;18965;52.242;20.886;2023-08-07T03:57:27;16.70;83.10
32524;DHT22;18965;52.242;20.886;2023-08-07T03:59:53;16.80;83.10
32524;DHT22;18965;52.242;20.886;2023-08-07T04:02:19;16.80;82.90
32524;DHT22;18965;52.242;20.886;2023-08-07T04:04:45;16.70;82.80
32524;DHT22;18965;52.242;20.886;2023-08-07T04:07:11;16.80;82.90
32524;DHT22;18965;52.242;20.886;2023-08-07T04:09:36;16.70;82.80
32524;DHT22;18965;52.242;20.886;2023-08-07T04:12:02;16.70;82.70
32524;DHT22;18965;52.242;20.886;2023-08-07T04:14:28;16.80;82.70
32524;DHT22;18965;52.242;20.886;2023-08-07T04:16:54;16.70;82.60
32524;DHT22;18965;52.242;20.886;2023-08-07T04:19:20;16.70;82.50
32524;DHT22;18965;52.242;20.886;2023-08-07T04:21:46;16.70;82.60
32524;DHT22;18965;52.242;20.886;2023-08-07T04:24:12;16.80;82.50
32524;DHT22;18965;52.242;20.886;2023-08-07T04:26:38;16.70;82.30
32524;DHT22;18965;52.242;20.886;2023-08-07T04:29:05;16.80;82.30
32524;DHT22;18965;52.242;20.886;2023-08-07T04:31:32;16.80;82.30
32524;DHT22;18965;52.242;20.886;2023-08-07T04:33:58;16.80;82.10
32524;DHT22;18965;52.242;20.886;2023-08-07T04:36:24;16.80;82.00
32524;DHT22;18965;52.242;20.886;2023-08-07T04:38:50;16.80;82.00
32524;DHT22;18965;52.242;20.886;2023-08-07T04:41:16;16.80;82.00
32524;DHT22;18965;52.242;20.886;2023-08-07T04:43:42;16.90;82.00
32524;DHT22;18965;52.242;20.886;2023-08-07T04:46:10;16.90;81.90
32524;DHT22;18965;52.242;20.886;2023-08-07T04:48:37;17.00;81.90
32524;DHT22;18965;52.242;20.886;2023-08-07T04:51:03;17.00;81.60
32524;DHT22;18965;52.242;20.886;2023-08-07T04:53:29;17.00;81.20
32524;DHT22;18965;52.242;20.886;2023-08-07T04:55:55;17.00;81.10
32524;DHT22;18965;52.242;20.886;2023-08-07T04:58:21;17.00;81.10
32524;DHT22;18965;52.242;20.886;2023-08-07T05:00:46;17.00;80.90
32524;DHT22;18965;52.242;20.886;2023-08-07T05:03:12;17.10;81.00
32524;DHT22;18965;52.242;20.886;2023-08-07T05:05:40;17.10;80.90
32524;DHT22;18965;52.242;20.886;2023-08-07T05:08:08;17.10;80.60
32524;DHT22;18965;52.242;20.886;2023-08-07T05:10:35;17.10;80.50
32524;DHT22;18965;52.242;20.886;2023-08-07T05:13:01;17.10;80.50
32524;DHT22;18965;52.242;20.886;2023-08-07T05:15:26;17.10;80.70
32524;DHT22;18965;52.242;20.886;2023-08-07T05:17:54;17.10;80.70
32524;DHT22;18965;52.242;20.886;2023-08-07T05:20:19;17.10;81.00
32524;DHT22;18965;52.242;20.886;2023-08-07T05:22:45;17.10;81.00
32524;DHT22;18965;52.242;20.886;2023-08-07T05:25:11;17.10;81.30
32524;DHT22;18965;52.242;20.886;2023-08-07T05:27:41;17.20;81.40
32524;DHT22;18965;52.242;20.886;2023-08-07T05:30:10;17.20;81.40
32524;DHT22;18965;52.242;20.886;2023-08-07T05:32:37;17.20;81.40
32524;DHT22;18965;52.242;20.886;2023-08-07T05:35:06;17.20;81.20
32524;DHT22;18965;52.242;20.886;2023-08-07T05:37:33;17.30;81.40
32524;DHT22;18965;52.242;20.886;2023-08-07T05:39:58;17.30;81.40
32524;DHT22;18965;52.242;20.886;2023-08-07T05:42:24;17.30;81.40
32524;DHT22;18965;52.242;20.886;2023-08-07T05:44:50;17.40;81.60
32524;DHT22;18965;52.242;20.886;2023-08-07T05:47:16;17.50;81.50
32524;DHT22;18965;52.242;20.886;2023-08-07T05:49:42;17.50;81.20
32524;DHT22;18965;52.242;20.886;2023-08-07T05:52:08;17.50;80.90
32524;DHT22;18965;52.242;20.886;2023-08-07T05:54:34;17.50;80.90
32524;DHT22;18965;52.242;20.886;2023-08-07T05:57:00;17.50;80.90
32524;DHT22;18965;52.242;20.886;2023-08-07T05:59:27;17.50;80.90
32524;DHT22;18965;52.242;20.886;2023-08-07T06:01:53;17.40;80.80
32524;DHT22;18965;52.242;20.886;2023-08-07T06:04:21;17.40;80.90
32524;DHT22;18965;52.242;20.886;2023-08-07T06:06:47;17.40;81.00
32524;DHT22;18965;52.242;20.886;2023-08-07T06:09:13;17.40;80.90
32524;DHT22;18965;52.242;20.886;2023-08-07T06:11:43;17.40;80.80
32524;DHT22;18965;52.242;20.886;2023-08-07T06:14:10;17.30;80.90
32524;DHT22;18965;52.242;20.886;2023-08-07T06:16:36;17.30;81.10
32524;DHT22;18965;52.242;20.886;2023-08-07T06:19:01;17.30;81.20
32524;DHT22;18965;52.242;20.886;2023-08-07T06:21:30;17.40;81.30
32524;DHT22;18965;52.242;20.886;2023-08-07T06:23:58;17.40;81.10
32524;DHT22;18965;52.242;20.886;2023-08-07T06:26:25;17.50;80.90
32524;DHT22;18965;52.242;20.886;2023-08-07T06:28:54;17.50;80.60
32524;DHT22;18965;52.242;20.886;2023-08-07T06:31:19;17.50;80.50
32524;DHT22;18965;52.242;20.886;2023-08-07T06:33:45;17.60;80.60
32524;DHT22;18965;52.242;20.886;2023-08-07T06:36:12;17.70;80.60
32524;DHT22;18965;52.242;20.886;2023-08-07T06:38:41;17.80;80.40
32524;DHT22;18965;52.242;20.886;2023-08-07T06:41:07;17.90;79.30
32524;DHT22;18965;52.242;20.886;2023-08-07T06:43:33;17.90;80.00
32524;DHT22;18965;52.242;20.886;2023-08-07T06:45:59;18.00;79.80
32524;DHT22;18965;52.242;20.886;2023-08-07T06:48:25;18.00;79.30
32524;DHT22;18965;52.242;20.886;2023-08-07T06:50:52;18.10;79.10
32524;DHT22;18965;52.242;20.886;2023-08-07T06:53:18;18.20;79.10
32524;DHT22;18965;52.242;20.886;2023-08-07T06:55:45;18.30;78.50
32524;DHT22;18965;52.242;20.886;2023-08-07T06:58:10;18.40;78.30
32524;DHT22;18965;52.242;20.886;2023-08-07T07:00:37;18.60;78.00
32524;DHT22;18965;52.242;20.886;2023-08-07T07:03:03;18.80;77.60
32524;DHT22;18965;52.242;20.886;2023-08-07T07:05:30;18.90;77.20
32524;DHT22;18965;52.242;20.886;2023-08-07T07:07:56;19.10;77.10
32524;DHT22;18965;52.242;20.886;2023-08-07T07:10:25;19.20;76.70
32524;DHT22;18965;52.242;20.886;2023-08-07T07:12:51;19.30;76.30
32524;DHT22;18965;52.242;20.886;2023-08-07T07:15:17;19.30;75.50
32524;DHT22;18965;52.242;20.886;2023-08-07T07:17:44;19.30;74.90
32524;DHT22;18965;52.242;20.886;2023-08-07T07:20:13;19.30;74.50
32524;DHT22;18965;52.242;20.886;2023-08-07T07:22:38;19.20;74.40
32524;DHT22;18965;52.242;20.886;2023-08-07T07:25:05;19.30;74.40
32524;DHT22;18965;52.242;20.886;2023-08-07T07:27:30;19.20;74.10
32524;DHT22;18965;52.242;20.886;2023-08-07T07:29:56;19.10;73.80
32524;DHT22;18965;52.242;20.886;2023-08-07T07:32:22;19.10;73.80
32524;DHT22;18965;52.242;20.886;2023-08-07T07:34:49;19.10;73.70
32524;DHT22;18965;52.242;20.886;2023-08-07T07:37:15;19.10;73.00
32524;DHT22;18965;52.242;20.886;2023-08-07T07:39:42;19.00;72.60
32524;DHT22;18965;52.242;20.886;2023-08-07T07:42:08;18.90;72.10
32524;DHT22;18965;52.242;20.886;2023-08-07T07:44:34;18.80;72.20
32524;DHT22;18965;52.242;20.886;2023-08-07T07:47:02;18.70;72.40
32524;DHT22;18965;52.242;20.886;2023-08-07T07:49:27;18.60;73.00
32524;DHT22;18965;52.242;20.886;2023-08-07T07:51:53;18.50;72.40
32524;DHT22;18965;52.242;20.886;2023-08-07T07:54:19;18.50;72.60
32524;DHT22;18965;52.242;20.886;2023-08-07T07:56:45;18.40;72.60
32524;DHT22;18965;52.242;20.886;2023-08-07T07:59:12;18.30;72.80
32524;DHT22;18965;52.242;20.886;2023-08-07T08:01:38;18.30;72.60
32524;DHT22;18965;52.242;20.886;2023-08-07T08:04:04;18.30;72.90
32524;DHT22;18965;52.242;20.886;2023-08-07T08:06:30;18.40;72.90
32524;DHT22;18965;52.242;20.886;2023-08-07T08:08:56;18.50;73.10
32524;DHT22;18965;52.242;20.886;2023-08-07T08:11:22;18.80;73.20
32524;DHT22;18965;52.242;20.886;2023-08-07T08:13:48;19.00;72.80
32524;DHT22;18965;52.242;20.886;2023-08-07T08:16:14;19.10;72.00
32524;DHT22;18965;52.242;20.886;2023-08-07T08:18:40;19.20;71.70
32524;DHT22;18965;52.242;20.886;2023-08-07T08:21:06;19.10;71.40
32524;DHT22;18965;52.242;20.886;2023-08-07T08:23:32;19.10;71.20
32524;DHT22;18965;52.242;20.886;2023-08-07T08:25:58;19.00;71.00
32524;DHT22;18965;52.242;20.886;2023-08-07T08:28:23;19.00;70.80
32524;DHT22;18965;52.242;20.886;2023-08-07T08:30:49;19.00;70.90
32524;DHT22;18965;52.242;20.886;2023-08-07T08:33:15;18.90;71.00
32524;DHT22;18965;52.242;20.886;2023-08-07T08:35:41;18.90;71.00
32524;DHT22;18965;52.242;20.886;2023-08-07T08:38:08;18.90;71.20
32524;DHT22;18965;52.242;20.886;2023-08-07T08:40:35;19.00;71.20
32524;DHT22;18965;52.242;20.886;2023-08-07T08:43:05;19.00;71.20
32524;DHT22;18965;52.242;20.886;2023-08-07T08:45:31;19.00;71.30
32524;DHT22;18965;52.242;20.886;2023-08-07T08:48:04;19.00;71.40
32524;DHT22;18965;52.242;20.886;2023-08-07T08:50:32;19.10;71.50
32524;DHT22;18965;52.242;20.886;2023-08-07T08:52:59;19.30;71.50
32524;DHT22;18965;52.242;20.886;2023-08-07T08:55:31;19.40;71.70
32524;DHT22;18965;52.242;20.886;2023-08-07T08:57:58;19.60;71.20
32524;DHT22;18965;52.242;20.886;2023-08-07T09:00:26;19.70;70.60
32524;DHT22;18965;52.242;20.886;2023-08-07T09:02:54;19.70;69.90
32524;DHT22;18965;52.242;20.886;2023-08-07T09:05:21;19.90;69.60
32524;DHT22;18965;52.242;20.886;2023-08-07T09:07:49;20.10;69.20
32524;DHT22;18965;52.242;20.886;2023-08-07T09:10:18;20.30;68.90
32524;DHT22;18965;52.242;20.886;2023-08-07T09:13:11;20.50;68.20
32524;DHT22;18965;52.242;20.886;2023-08-07T09:15:38;20.70;67.20
32524;DHT22;18965;52.242;20.886;2023-08-07T09:18:09;20.90;67.30
32524;DHT22;18965;52.242;20.886;2023-08-07T09:20:37;21.00;66.50
32524;DHT22;18965;52.242;20.886;2023-08-07T09:23:05;21.10;66.10
32524;DHT22;18965;52.242;20.886;2023-08-07T09:25:32;21.10;65.20
32524;DHT22;18965;52.242;20.886;2023-08-07T09:28:01;21.10;64.70
32524;DHT22;18965;52.242;20.886;2023-08-07T09:30:30;21.20;64.40
32524;DHT22;18965;52.242;20.886;2023-08-07T09:33:00;21.20;64.10
32524;DHT22;18965;52.242;20.886;2023-08-07T09:35:26;21.30;63.80
32524;DHT22;18965;52.242;20.886;2023-08-07T09:37:52;21.40;63.40
32524;DHT22;18965;52.242;20.886;2023-08-07T09:40:18;21.40;63.00
32524;DHT22;18965;52.242;20.886;2023-08-07T09:42:51;21.50;62.70
32524;DHT22;18965;52.242;20.886;2023-08-07T09:45:27;21.40;62.40
32524;DHT22;18965;52.242;20.886;2023-08-07T09:48:01;21.40;62.20
32524;DHT22;18965;52.242;20.886;2023-08-07T09:50:36;21.40;61.90
32524;DHT22;18965;52.242;20.886;2023-08-07T09:53:02;21.40;61.70
32524;DHT22;18965;52.242;20.886;2023-08-07T09:55:28;21.30;61.90
32524;DHT22;18965;52.242;20.886;2023-08-07T09:57:54;21.40;61.80
32524;DHT22;18965;52.242;20.886;2023-08-07T10:00:21;21.40;61.90
32524;DHT22;18965;52.242;20.886;2023-08-07T10:02:53;21.60;61.80
32524;DHT22;18965;52.242;20.886;2023-08-07T10:05:25;21.70;61.20
32524;DHT22;18965;52.242;20.886;2023-08-07T10:07:51;21.90;60.90
32524;DHT22;18965;52.242;20.886;2023-08-07T10:10:17;22.10;60.80
32524;DHT22;18965;52.242;20.886;2023-08-07T10:12:46;22.20;60.20
32524;DHT22;18965;52.242;20.886;2023-08-07T10:15:18;22.30;59.90
32524;DHT22;18965;52.242;20.886;2023-08-07T10:17:45;22.40;59.90
32524;DHT22;18965;52.242;20.886;2023-08-07T10:20:12;22.40;59.60
32524;DHT22;18965;52.242;20.886;2023-08-07T10:22:38;22.30;59.40
32524;DHT22;18965;52.242;20.886;2023-08-07T10:25:06;22.20;59.20
32524;DHT22;18965;52.242;20.886;2023-08-07T10:27:36;22.20;59.20
32524;DHT22;18965;52.242;20.886;2023-08-07T10:30:05;22.30;59.20
32524;DHT22;18965;52.242;20.886;2023-08-07T10:32:32;22.40;59.40
32524;DHT22;18965;52.242;20.886;2023-08-07T10:34:58;22.50;59.20
32524;DHT22;18965;52.242;20.886;2023-08-07T10:37:44;22.50;58.80
32524;DHT22;18965;52.242;20.886;2023-08-07T10:40:13;22.50;58.40
32524;DHT22;18965;52.242;20.886;2023-08-07T10:42:52;22.60;58.50
32524;DHT22;18965;52.242;20.886;2023-08-07T10:45:27;22.60;57.90
32524;DHT22;18965;52.242;20.886;2023-08-07T10:48:12;22.60;57.80
32524;DHT22;18965;52.242;20.886;2023-08-07T10:56:04;22.60;57.60
32524;DHT22;18965;52.242;20.886;2023-08-07T10:58:37;22.60;57.70
32524;DHT22;18965;52.242;20.886;2023-08-07T11:01:40;22.60;57.50
32524;DHT22;18965;52.242;20.886;2023-08-07T11:04:13;22.50;57.30
32524;DHT22;18965;52.242;20.886;2023-08-07T11:06:40;22.40;57.30
32524;DHT22;18965;52.242;20.886;2023-08-07T11:09:09;22.40;57.40
32524;DHT22;18965;52.242;20.886;2023-08-07T11:11:38;22.40;57.10
32524;DHT22;18965;52.242;20.886;2023-08-07T11:14:15;22.40;57.00
32524;DHT22;18965;52.242;20.886;2023-08-07T11:16:42;22.40;56.80
32524;DHT22;18965;52.242;20.886;2023-08-07T11:19:08;22.40;56.50
32524;DHT22;18965;52.242;20.886;2023-08-07T11:21:34;22.40;56.80
32524;DHT22;18965;52.242;20.886;2023-08-07T11:24:01;22.40;56.70
32524;DHT22;18965;52.242;20.886;2023-08-07T11:26:27;22.50;56.50
32524;DHT22;18965;52.242;20.886;2023-08-07T11:28:57;22.50;56.30
32524;DHT22;18965;52.242;20.886;2023-08-07T11:31:28;22.50;56.30
32524;DHT22;18965;52.242;20.886;2023-08-07T11:33:58;22.50;56.20
32524;DHT22;18965;52.242;20.886;2023-08-07T11:36:24;22.40;56.50
32524;DHT22;18965;52.242;20.886;2023-08-07T11:38:50;22.60;56.50
32524;DHT22;18965;52.242;20.886;2023-08-07T11:41:17;22.70;56.10
32524;DHT22;18965;52.242;20.886;2023-08-07T11:43:43;22.80;56.30
32524;DHT22;18965;52.242;20.886;2023-08-07T11:46:11;22.90;55.60
32524;DHT22;18965;52.242;20.886;2023-08-07T11:48:39;22.90;55.50
32524;DHT22;18965;52.242;20.886;2023-08-07T11:51:05;23.00;55.30
32524;DHT22;18965;52.242;20.886;2023-08-07T11:53:37;23.10;55.70
32524;DHT22;18965;52.242;20.886;2023-08-07T11:56:10;23.20;55.00
32524;DHT22;18965;52.242;20.886;2023-08-07T11:58:41;23.20;54.90
32524;DHT22;18965;52.242;20.886;2023-08-07T12:01:11;23.20;54.90
32524;DHT22;18965;52.242;20.886;2023-08-07T12:03:40;23.20;54.80
32524;DHT22;18965;52.242;20.886;2023-08-07T12:06:09;23.20;54.70
32524;DHT22;18965;52.242;20.886;2023-08-07T12:08:39;23.20;54.70
32524;DHT22;18965;52.242;20.886;2023-08-07T12:11:11;23.30;54.60
32524;DHT22;18965;52.242;20.886;2023-08-07T12:13:43;23.30;54.30
32524;DHT22;18965;52.242;20.886;2023-08-07T12:16:12;23.20;54.20
32524;DHT22;18965;52.242;20.886;2023-08-07T12:18:45;23.10;54.40
32524;DHT22;18965;52.242;20.886;2023-08-07T12:21:15;22.90;54.30
32524;DHT22;18965;52.242;20.886;2023-08-07T12:23:41;22.70;54.50
32524;DHT22;18965;52.242;20.886;2023-08-07T12:26:07;22.50;54.70
32524;DHT22;18965;52.242;20.886;2023-08-07T12:28:36;22.30;54.70
32524;DHT22;18965;52.242;20.886;2023-08-07T12:31:03;22.30;55.30
32524;DHT22;18965;52.242;20.886;2023-08-07T12:33:29;22.30;55.50
32524;DHT22;18965;52.242;20.886;2023-08-07T12:35:55;22.40;55.50
32524;DHT22;18965;52.242;20.886;2023-08-07T12:38:21;22.60;55.70
32524;DHT22;18965;52.242;20.886;2023-08-07T12:40:47;22.60;55.30
32524;DHT22;18965;52.242;20.886;2023-08-07T12:43:13;22.80;56.50
32524;DHT22;18965;52.242;20.886;2023-08-07T12:45:39;22.90;55.60
32524;DHT22;18965;52.242;20.886;2023-08-07T12:48:05;22.90;55.20
32524;DHT22;18965;52.242;20.886;2023-08-07T12:50:31;23.00;54.40
32524;DHT22;18965;52.242;20.886;2023-08-07T12:52:57;23.00;54.20
32524;DHT22;18965;52.242;20.886;2023-08-07T12:55:22;23.10;54.30
32524;DHT22;18965;52.242;20.886;2023-08-07T12:57:52;23.20;54.30
32524;DHT22;18965;52.242;20.886;2023-08-07T13:00:18;23.30;54.30
32524;DHT22;18965;52.242;20.886;2023-08-07T13:02:45;23.30;53.90
32524;DHT22;18965;52.242;20.886;2023-08-07T13:05:12;23.30;53.40
32524;DHT22;18965;52.242;20.886;2023-08-07T13:07:38;23.30;52.90
32524;DHT22;18965;52.242;20.886;2023-08-07T13:10:06;23.20;52.60
32524;DHT22;18965;52.242;20.886;2023-08-07T13:12:36;23.20;52.50
32524;DHT22;18965;52.242;20.886;2023-08-07T13:15:06;23.10;52.60
32524;DHT22;18965;52.242;20.886;2023-08-07T13:17:38;23.00;52.60
32524;DHT22;18965;52.242;20.886;2023-08-07T13:20:05;23.00;52.90
32524;DHT22;18965;52.242;20.886;2023-08-07T13:22:37;23.00;52.80
32524;DHT22;18965;52.242;20.886;2023-08-07T13:25:06;23.00;52.60
32524;DHT22;18965;52.242;20.886;2023-08-07T13:27:33;23.00;52.50
32524;DHT22;18965;52.242;20.886;2023-08-07T13:29:59;23.00;52.80
32524;DHT22;18965;52.242;20.886;2023-08-07T13:32:26;23.10;52.90
32524;DHT22;18965;52.242;20.886;2023-08-07T13:34:52;23.10;52.80
32524;DHT22;18965;52.242;20.886;2023-08-07T13:37:18;23.10;53.40
32524;DHT22;18965;52.242;20.886;2023-08-07T13:39:43;23.00;52.50
32524;DHT22;18965;52.242;20.886;2023-08-07T13:42:12;22.90;52.30
32524;DHT22;18965;52.242;20.886;2023-08-07T13:44:38;22.90;52.40
32524;DHT22;18965;52.242;20.886;2023-08-07T13:47:10;22.80;52.80
32524;DHT22;18965;52.242;20.886;2023-08-07T13:49:40;22.70;52.80
32524;DHT22;18965;52.242;20.886;2023-08-07T13:52:06;22.60;52.70
32524;DHT22;18965;52.242;20.886;2023-08-07T13:54:32;22.60;52.70
32524;DHT22;18965;52.242;20.886;2023-08-07T13:57:01;22.50;53.10
32524;DHT22;18965;52.242;20.886;2023-08-07T13:59:27;22.50;53.40
32524;DHT22;18965;52.242;20.886;2023-08-07T14:01:55;22.50;53.60
32524;DHT22;18965;52.242;20.886;2023-08-07T14:04:21;22.60;53.90
32524;DHT22;18965;52.242;20.886;2023-08-07T14:06:47;22.60;54.00
32524;DHT22;18965;52.242;20.886;2023-08-07T14:09:13;22.60;54.00
32524;DHT22;18965;52.242;20.886;2023-08-07T14:11:42;22.70;53.90
32524;DHT22;18965;52.242;20.886;2023-08-07T14:14:08;22.80;53.70
32524;DHT22;18965;52.242;20.886;2023-08-07T14:16:37;22.80;53.70
32524;DHT22;18965;52.242;20.886;2023-08-07T14:19:04;22.80;53.60
32524;DHT22;18965;52.242;20.886;2023-08-07T14:21:30;22.90;53.60
32524;DHT22;18965;52.242;20.886;2023-08-07T14:23:56;22.80;53.50
32524;DHT22;18965;52.242;20.886;2023-08-07T14:26:22;22.60;53.70
32524;DHT22;18965;52.242;20.886;2023-08-07T14:28:48;22.50;54.10
32524;DHT22;18965;52.242;20.886;2023-08-07T14:31:14;22.30;54.50
32524;DHT22;18965;52.242;20.886;2023-08-07T14:33:39;22.20;54.70
32524;DHT22;18965;52.242;20.886;2023-08-07T14:36:05;22.00;54.90
32524;DHT22;18965;52.242;20.886;2023-08-07T14:38:31;21.80;55.00
32524;DHT22;18965;52.242;20.886;2023-08-07T14:40:58;21.70;55.40
32524;DHT22;18965;52.242;20.886;2023-08-07T14:43:30;21.50;55.80
32524;DHT22;18965;52.242;20.886;2023-08-07T14:45:56;21.50;56.50
32524;DHT22;18965;52.242;20.886;2023-08-07T14:48:22;21.50;56.50
32524;DHT22;18965;52.242;20.886;2023-08-07T14:50:48;21.60;56.80
32524;DHT22;18965;52.242;20.886;2023-08-07T14:53:13;21.60;56.70
32524;DHT22;18965;52.242;20.886;2023-08-07T14:55:39;21.60;57.40
32524;DHT22;18965;52.242;20.886;2023-08-07T14:58:05;21.60;56.50
32524;DHT22;18965;52.242;20.886;2023-08-07T15:00:35;21.60;56.60
32524;DHT22;18965;52.242;20.886;2023-08-07T15:03:00;21.60;56.80
32524;DHT22;18965;52.242;20.886;2023-08-07T15:05:27;21.60;57.10
32524;DHT22;18965;52.242;20.886;2023-08-07T15:07:56;21.60;56.80
32524;DHT22;18965;52.242;20.886;2023-08-07T15:10:22;21.60;56.60
32524;DHT22;18965;52.242;20.886;2023-08-07T15:12:47;21.50;56.40
32524;DHT22;18965;52.242;20.886;2023-08-07T15:15:13;21.50;56.40
32524;DHT22;18965;52.242;20.886;2023-08-07T15:17:39;21.50;56.30
32524;DHT22;18965;52.242;20.886;2023-08-07T15:20:05;21.50;56.20
32524;DHT22;18965;52.242;20.886;2023-08-07T15:22:37;21.50;56.30